This is the latest recevied weather packets stored in our database for station/object KO6HRZ. If no packets are shown the sender has not sent any weather packets the latest 10 day(s).
| Time | Temp. | Humidity | Pressure | Rain* | Wind** | Luminosity | Snow |
|---|---|---|---|---|---|---|---|
| 1777581392 | 28.89° C | 41% | 1013.3 hPa | 0 mm | - | 856 W/m² | - |
| 1777580791 | 27.78° C | 45% | 1013.3 hPa | 0 mm | - | 860 W/m² | - |
| 1777580189 | 27.78° C | 43% | 1013.7 hPa | 0 mm | - | 859 W/m² | - |
| 1777579585 | 27.78° C | 46% | 1013.4 hPa | 0 mm | - | 858 W/m² | - |
| 1777578981 | 27.22° C | 44% | 1013.5 hPa | 0 mm | - | 858 W/m² | - |
| 1777578382 | 27.22° C | 45% | 1013.6 hPa | 0 mm | - | 852 W/m² | - |
| 1777577780 | 27.22° C | 46% | 1013.7 hPa | 0 mm | - | 847 W/m² | - |
| 1777577179 | 27.78° C | 46% | 1013.8 hPa | 0 mm | - | 842 W/m² | - |
| 1777576574 | 26.67° C | 51% | 1014.2 hPa | 0 mm | - | 829 W/m² | - |
| 1777575973 | 26.11° C | 49% | 1014.1 hPa | 0 mm | - | 822 W/m² | - |
| 1777575370 | 24.44° C | 50% | 1014.4 hPa | 0 mm | - | 812 W/m² | - |
| 1777574769 | 26.67° C | 45% | 1014.4 hPa | 0 mm | - | 801 W/m² | - |
| 1777574168 | 26.11° C | 45% | 1014.5 hPa | 0 mm | - | 783 W/m² | - |
| 1777573564 | 24.44° C | 53% | 1014.6 hPa | 0 mm | - | 764 W/m² | - |
| 1777572963 | 25° C | 53% | 1014.7 hPa | 0 mm | - | 741 W/m² | - |
| 1777572359 | 24.44° C | 52% | 1014.8 hPa | 0 mm | - | 710 W/m² | - |
| 1777571755 | 24.44° C | 52% | 1014.6 hPa | 0 mm | - | 690 W/m² | - |
| 1777571149 | 22.78° C | 57% | 1014.8 hPa | 0 mm | - | 666 W/m² | - |
| 1777570547 | 22.78° C | 56% | 1014.7 hPa | 0 mm | - | 639 W/m² | - |
| 1777569944 | 22.78° C | 58% | 1015 hPa | 0 mm | - | 607 W/m² | - |
| 1777569343 | 21.67° C | 57% | 1015 hPa | 0 mm | - | 579 W/m² | - |
| 1777568742 | 21.11° C | 61% | 1014.9 hPa | 0 mm | - | 548 W/m² | - |
| 1777568136 | 21.11° C | 61% | 1015.1 hPa | 0 mm | - | 522 W/m² | - |
| 1777567534 | 20.56° C | 60% | 1015.1 hPa | 0 mm | - | 493 W/m² | - |
| 1777566930 | 20.56° C | 63% | 1015 hPa | 0 mm | - | 464 W/m² | - |
* Rain latest hour (hover to see other rain measurements)
** Current wind speed in m/s (hover to see current wind gust speed)